MST,Max TemperatureF,Mean TemperatureF,Min TemperatureF,Max Dew PointF,MeanDew PointF,Min DewpointF,Max Humidity, Mean Humidity, Min Humidity, Max Sea Level PressureIn, Mean Sea Level PressureIn, Min Sea Level PressureIn, Max VisibilityMiles, Mean VisibilityMiles, Min VisibilityMiles, Max Wind SpeedMPH, Mean Wind SpeedMPH, Max Gust SpeedMPH,PrecipitationIn, CloudCover, Events, WindDirDegrees
2011-10-1,91,81,71,77,73,68,94,78,62,29.88,29.82,29.76,12,10,10,12,6,,0.00,0,Thunderstorm,335
2011-10-2,89,80,71,75,72,68,94,78,59,29.91,29.86,29.79,15,12,8,9,6,,0.25,2,Rain-Thunderstorm,318
2011-10-3,89,80,71,77,74,70,94,79,62,29.89,29.85,29.79,15,12,10,12,6,,0.00,1,,338
2011-10-4,89,82,75,79,76,72,89,81,62,29.91,29.85,29.80,12,10,8,12,5,,0.00,2,Thunderstorm,313
2011-10-5,91,83,75,77,75,73,94,81,59,29.93,29.83,29.76,15,10,8,14,7,,0.00,3,,332
2011-10-6,89,81,73,77,73,70,94,81,62,29.86,29.80,29.74,12,9,3,10,5,,0.00,3,,342
2011-10-7,89,80,71,73,71,68,94,79,55,29.88,29.84,29.79,15,12,10,10,7,,0.00,3,,352
2011-10-8,87,78,69,72,67,48,88,71,46,29.86,29.81,29.73,15,12,10,15,7,,0.00,0,,320
2011-10-9,87,76,66,70,67,64,94,73,52,29.83,29.76,29.68,15,12,10,10,6,,0.00,0,,339
2011-10-10,89,76,64,72,64,57,94,69,38,29.80,29.73,29.67,10,10,10,14,7,,0.00,5,,333
2011-10-11,84,76,69,75,67,63,88,73,58,29.73,29.67,29.63,12,10,8,9,4,,0.85,8,Rain,327
2011-10-12,87,78,68,73,69,64,94,77,55,29.86,29.71,29.62,15,11,10,12,6,,0.00,7,,111
2011-10-13,86,78,71,73,72,68,94,81,66,29.85,29.80,29.73,15,12,10,10,6,,0.00,3,,338
2011-10-14,89,80,71,75,72,68,94,80,59,29.80,29.75,29.69,12,10,10,15,6,,0.00,0,,296
2011-10-15,89,80,71,75,73,70,94,79,62,29.83,29.78,29.72,14,11,4,12,6,,0.00,0,,290
2011-10-16,91,82,73,75,72,70,94,78,55,29.90,29.84,29.78,12,11,8,10,7,,0.00,0,,328
2011-10-17,87,80,73,75,73,72,94,80,62,29.91,29.85,29.78,12,10,10,14,6,,0.00,2,,312
2011-10-18,91,82,73,75,73,72,94,79,59,29.84,29.78,29.70,10,9,8,16,6,,0.00,2,,316
2011-10-19,89,81,73,75,73,72,94,83,62,29.92,29.82,29.76,10,10,10,10,5,,0.00,2,,350
2011-10-20,89,81,73,73,72,70,94,78,59,29.99,29.93,29.88,15,10,4,15,7,,0.00,1,,330
2011-10-21,89,81,73,75,72,70,94,78,55,29.98,29.93,29.88,12,10,7,14,6,,0.00,3,,295
2011-10-22,87,80,73,73,71,68,89,76,58,29.92,29.87,29.83,12,10,8,14,7,,0.00,5,,305
2011-10-23,89,80,71,73,70,66,94,74,55,29.90,29.84,29.79,15,11,10,15,5,,0.00,4,,323
2011-10-24,89,79,69,73,70,66,89,74,52,29.97,29.89,29.81,15,12,10,14,6,,0.00,0,,328
2011-10-25,87,78,69,73,71,68,94,78,58,29.98,29.91,29.84,12,11,10,12,6,,0.00,1,,63
2011-10-26,87,80,71,82,73,70,94,80,62,29.90,29.83,29.76,12,10,8,14,6,,0.00,4,,324
2011-10-27,87,78,69,73,70,66,94,77,58,29.85,29.79,29.74,15,11,8,18,7,,0.00,0,,324
2011-10-28,87,76,66,77,64,57,94,72,43,29.89,29.83,29.56,15,12,10,18,7,,0.00,0,,311
2011-10-29,86,74,62,66,61,55,88,68,35,29.94,29.88,29.84,15,12,10,10,7,,0.00,0,,351
2011-10-30,87,76,64,66,64,61,88,72,49,29.94,29.89,29.84,15,12,10,10,7,,0.00,0,,335
2011-10-31,87,76,64,66,64,61,94,73,46,29.89,29.84,29.77,12,10,10,14,6,,0.00,0,,331